Time,TemperatureF,DewpointF,PressureIn,WindDirection,WindDirectionDegrees,WindSpeedMPH,WindSpeedGustMPH,Humidity,HourlyPrecipIn,Conditions,Clouds,dailyrainin,SolarRadiationWatts/m^2,SoftwareType,DateUTC
2013-02-22 00:01:00,24.3,15.2,30.13,WNW,300,3.0,8.0,68,0.00,CLR,SCT,0.00,0.0,WeatherDisplay:10.37,2013-02-22 05:01:00,
2013-02-22 00:05:00,24.3,15.2,30.13,NW,310,2.0,7.0,68,0.00,CLR,SCT,0.00,0.0,WeatherDisplay:10.37,2013-02-22 05:05:00,
2013-02-22 00:10:00,24.4,15.4,30.13,NNW,341,3.0,8.0,68,0.00,CLR,SCT,0.00,0.0,WeatherDisplay:10.37,2013-02-22 05:10:00,
2013-02-22 00:15:00,24.6,15.6,30.13,NNW,346,2.0,8.0,68,0.00,CLR,SCT,0.00,0.0,WeatherDisplay:10.37,2013-02-22 05:15:00,
2013-02-22 00:20:00,24.8,15.7,30.14,NNW,327,2.0,8.0,68,0.00,CLR,SCT,0.00,0.0,WeatherDisplay:10.37,2013-02-22 05:20:00,
2013-02-22 00:30:00,24.8,15.7,30.15,NW,318,2.0,8.0,68,0.00,CLR,SCT,0.00,0.0,WeatherDisplay:10.37,2013-02-22 05:30:00,
2013-02-22 00:40:00,24.8,15.7,30.16,NW,319,3.0,10.0,68,0.00,CLR,SCT,0.00,0.0,WeatherDisplay:10.37,2013-02-22 05:40:00,
2013-02-22 00:45:00,25.1,16.3,30.16,North,349,5.0,13.0,69,0.00,CLR,SCT,0.00,0.0,WeatherDisplay:10.37,2013-02-22 05:45:00,
2013-02-22 00:55:00,25.3,16.6,30.17,NNE,28,2.0,9.0,69,0.00,CLR,SCT,0.00,0.0,WeatherDisplay:10.37,2013-02-22 05:55:00,
2013-02-22 01:01:00,25.3,16.6,30.17,NNE,21,6.0,13.0,69,0.00,CLR,SCT,0.00,0.0,WeatherDisplay:10.37,2013-02-22 06:01:00,
2013-02-22 01:10:00,25.2,16.4,30.16,NNW,334,5.0,13.0,69,0.00,CLR,SCT,0.00,0.0,WeatherDisplay:10.37,2013-02-22 06:10:00,
2013-02-22 01:15:00,25.2,16.7,30.16,NNW,343,2.0,8.0,70,0.00,CLR,SCT,0.00,0.0,WeatherDisplay:10.37,2013-02-22 06:15:00,
2013-02-22 01:25:00,25.2,16.7,30.17,North,1,3.0,9.0,70,0.00,CLR,SCT,0.00,0.0,WeatherDisplay:10.37,2013-02-22 06:25:00,
2013-02-22 01:30:00,25.2,16.7,30.17,North,355,2.0,8.0,70,0.00,CLR,SCT,0.00,0.0,WeatherDisplay:10.37,2013-02-22 06:30:00,
2013-02-22 01:40:00,25.2,17.1,30.17,North,359,5.0,12.0,71,0.00,CLR,SCT,0.00,0.0,WeatherDisplay:10.37,2013-02-22 06:40:00,
2013-02-22 01:45:00,25.2,17.1,30.16,North,6,3.0,12.0,71,0.00,CLR,SCT,0.00,0.0,WeatherDisplay:10.37,2013-02-22 06:45:00,
2013-02-22 01:55:00,25.2,17.1,30.16,NNW,347,3.0,10.0,71,0.00,CLR,SCT,0.00,0.0,WeatherDisplay:10.37,2013-02-22 06:55:00,
2013-02-22 02:00:00,25.0,16.9,30.17,NNW,339,3.0,10.0,71,0.00,CLR,SCT,0.00,0.0,WeatherDisplay:10.37,2013-02-22 07:00:00,
2013-02-22 02:10:00,24.7,16.7,30.17,North,352,2.0,7.0,71,0.00,CLR,SCT,0.00,0.0,WeatherDisplay:10.37,2013-02-22 07:10:00,
2013-02-22 02:15:00,24.6,16.6,30.17,NNW,338,2.0,6.0,71,0.00,CLR,SCT,0.00,0.0,WeatherDisplay:10.37,2013-02-22 07:15:00,
2013-02-22 02:25:00,24.6,16.9,30.17,NNW,332,2.0,6.0,72,0.00,CLR,SCT,0.00,0.0,WeatherDisplay:10.37,2013-02-22 07:25:00,
2013-02-22 02:30:00,24.6,17.2,30.17,NNW,342,2.0,7.0,73,0.00,CLR,SCT,0.00,0.0,WeatherDisplay:10.37,2013-02-22 07:30:00,
2013-02-22 02:40:00,24.6,17.2,30.18,NW,319,2.0,8.0,73,0.00,CLR,SCT,0.00,0.0,WeatherDisplay:10.37,2013-02-22 07:40:00,
2013-02-22 02:45:00,24.6,17.2,30.18,NW,326,2.0,8.0,73,0.00,CLR,SCT,0.00,0.0,WeatherDisplay:10.37,2013-02-22 07:45:00,
2013-02-22 02:55:00,24.4,17.0,30.18,NW,315,1.0,6.0,73,0.00,CLR,SCT,0.00,0.0,WeatherDisplay:10.37,2013-02-22 07:55:00,
2013-02-22 03:01:00,24.4,17.0,30.18,NW,323,3.0,9.0,73,0.00,CLR,SCT,0.00,0.0,WeatherDisplay:10.37,2013-02-22 08:01:00,
2013-02-22 03:10:00,24.4,17.0,30.18,NW,318,3.0,8.0,73,0.00,CLR,SCT,0.00,0.0,WeatherDisplay:10.37,2013-02-22 08:10:00,
2013-02-22 03:15:00,24.4,17.3,30.18,NW,320,1.0,6.0,74,0.00,CLR,SCT,0.00,0.0,WeatherDisplay:10.37,2013-02-22 08:15:00,
2013-02-22 03:25:00,24.4,17.3,30.19,North,351,1.0,5.0,74,0.00,CLR,SCT,0.00,0.0,WeatherDisplay:10.37,2013-02-22 08:25:00,
2013-02-22 03:30:00,24.4,17.3,30.19,NNW,329,1.0,6.0,74,0.00,CLR,SCT,0.00,0.0,WeatherDisplay:10.37,2013-02-22 08:30:00,
2013-02-22 03:40:00,24.3,17.5,30.19,NNW,342,2.0,4.0,75,0.00,CLR,SCT,0.00,0.0,WeatherDisplay:10.37,2013-02-22 08:40:00,
2013-02-22 03:45:00,24.4,17.6,30.18,NNW,348,2.0,6.0,75,0.00,CLR,SCT,0.00,0.0,WeatherDisplay:10.37,2013-02-22 08:45:00,
2013-02-22 03:55:00,24.4,17.6,30.20,NNW,337,2.0,6.0,75,0.00,CLR,SCT,0.00,0.0,WeatherDisplay:10.37,2013-02-22 08:55:00,
2013-02-22 04:01:00,24.4,17.6,30.19,NW,315,2.0,6.0,75,0.00,CLR,SCT,0.00,0.0,WeatherDisplay:10.37,2013-02-22 09:01:00,
2013-02-22 04:11:00,24.3,17.5,30.20,NNW,328,1.0,3.0,75,0.00,CLR,SCT,0.00,0.0,WeatherDisplay:10.37,2013-02-22 09:11:00,
2013-02-22 04:16:00,24.1,17.4,30.20,NNW,343,1.0,6.0,75,0.00,CLR,SCT,0.00,0.0,WeatherDisplay:10.37,2013-02-22 09:16:00,
2013-02-22 04:25:00,24.0,17.2,30.20,NW,320,1.0,3.0,75,0.00,CLR,SCT,0.00,0.0,WeatherDisplay:10.37,2013-02-22 09:25:00,
2013-02-22 04:30:00,23.9,17.4,30.19,NNW,342,1.0,4.0,76,0.00,CLR,SCT,0.00,0.0,WeatherDisplay:10.37,2013-02-22 09:30:00,
2013-02-22 04:40:00,23.7,17.3,30.20,WNW,303,1.0,3.0,76,0.00,CLR,SCT,0.00,0.0,WeatherDisplay:10.37,2013-02-22 09:40:00,
2013-02-22 04:45:00,23.5,17.1,30.19,NW,315,1.0,3.0,76,0.00,CLR,SCT,0.00,0.0,WeatherDisplay:10.37,2013-02-22 09:45:00,
2013-02-22 04:55:00,23.5,17.1,30.19,NNW,331,1.0,5.0,76,0.00,CLR,SCT,0.00,0.0,WeatherDisplay:10.37,2013-02-22 09:55:00,
2013-02-22 05:01:00,23.4,17.2,30.19,NNW,339,1.0,3.0,77,0.00,CLR,SCT,0.00,0.0,WeatherDisplay:10.37,2013-02-22 10:01:00,
2013-02-22 05:10:00,23.2,17.0,30.21,NNW,328,1.0,4.0,77,0.00,CLR,SCT,0.00,0.0,WeatherDisplay:10.37,2013-02-22 10:10:00,
2013-02-22 05:15:00,23.1,16.9,30.21,NW,318,1.0,2.0,77,0.00,CLR,SCT,0.00,0.0,WeatherDisplay:10.37,2013-02-22 10:15:00,
2013-02-22 05:25:00,22.7,16.9,30.21,NW,314,1.0,5.0,78,0.00,CLR,SCT,0.00,0.0,WeatherDisplay:10.37,2013-02-22 10:25:00,
2013-02-22 05:30:00,22.6,16.8,30.22,NW,309,0.0,5.0,78,0.00,CLR,SCT,0.00,0.0,WeatherDisplay:10.37,2013-02-22 10:30:00,
2013-02-22 05:40:00,22.5,16.6,30.23,WNW,288,0.0,2.0,78,0.00,CLR,SCT,0.00,0.0,WeatherDisplay:10.37,2013-02-22 10:40:00,
2013-02-22 05:45:00,22.3,16.8,30.23,West,274,0.0,1.0,79,0.00,CLR,SCT,0.00,0.0,WeatherDisplay:10.37,2013-02-22 10:45:00,
2013-02-22 05:55:00,21.9,16.4,30.24,West,270,0.0,0.0,79,0.00,CLR,SCT,0.00,0.0,WeatherDisplay:10.37,2013-02-22 10:55:00,
2013-02-22 06:01:00,21.6,16.1,30.24,West,270,0.0,2.0,79,0.00,CLR,SCT,0.00,0.0,WeatherDisplay:10.37,2013-02-22 11:01:00,
2013-02-22 06:10:00,21.2,16.0,30.25,West,270,1.0,2.0,80,0.00,CLR,SCT,0.00,0.0,WeatherDisplay:10.37,2013-02-22 11:10:00,
2013-02-22 06:15:00,21.2,16.6,30.26,West,270,1.0,2.0,82,0.00,CLR,SCT,0.00,0.0,WeatherDisplay:10.37,2013-02-22 11:15:00,
2013-02-22 06:25:00,21.2,16.6,30.26,WNW,299,1.0,2.0,82,0.00,CLR,SCT,0.00,0.0,WeatherDisplay:10.37,2013-02-22 11:25:00,
2013-02-22 06:30:00,21.0,16.1,30.26,NW,324,0.0,2.0,81,0.00,CLR,SCT,0.00,0.0,WeatherDisplay:10.37,2013-02-22 11:30:00,
2013-02-22 06:40:00,20.8,16.2,30.27,NNW,336,0.0,2.0,82,0.00,CLR,SCT,0.00,0.0,WeatherDisplay:10.37,2013-02-22 11:40:00,
2013-02-22 06:45:00,20.8,16.2,30.27,NW,319,0.0,2.0,82,0.00,CLR,SCT,0.00,0.0,WeatherDisplay:10.37,2013-02-22 11:45:00,
2013-02-22 06:55:00,21.4,16.7,30.28,WNW,286,0.0,2.0,82,0.00,CLR,SCT,0.00,0.0,WeatherDisplay:10.37,2013-02-22 11:55:00,
2013-02-22 07:01:00,21.7,17.4,30.28,NW,308,1.0,5.0,83,0.00,CLR,SCT,0.00,0.0,WeatherDisplay:10.37,2013-02-22 12:01:00,
2013-02-22 07:10:00,22.6,18.0,30.29,NW,320,1.0,2.0,82,0.00,CLR,SCT,0.00,0.0,WeatherDisplay:10.37,2013-02-22 12:10:00,
2013-02-22 07:15:00,23.0,18.3,30.29,NNW,332,1.0,3.0,82,0.00,CLR,SCT,0.00,0.0,WeatherDisplay:10.37,2013-02-22 12:15:00,
2013-02-22 07:25:00,23.5,18.8,30.30,North,353,0.0,3.0,82,0.00,CLR,SCT,0.00,0.0,WeatherDisplay:10.37,2013-02-22 12:25:00,
2013-02-22 07:30:00,24.2,19.5,30.30,NW,319,1.0,3.0,82,0.00,CLR,SCT,0.00,0.0,WeatherDisplay:10.37,2013-02-22 12:30:00,
2013-02-22 07:40:00,25.5,20.2,30.29,NNW,348,2.0,5.0,80,0.00,CLR,SCT,0.00,0.0,WeatherDisplay:10.37,2013-02-22 12:40:00,
2013-02-22 07:45:00,25.9,20.3,30.30,NNW,347,1.0,5.0,79,0.00,CLR,SCT,0.00,0.0,WeatherDisplay:10.37,2013-02-22 12:45:00,
2013-02-22 07:55:00,26.8,20.5,30.31,North,359,2.0,6.0,77,0.00,CLR,SCT,0.00,0.0,WeatherDisplay:10.37,2013-02-22 12:55:00,
2013-02-22 08:01:00,27.1,20.8,30.31,North,352,2.0,5.0,77,0.00,CLR,SCT,0.00,0.0,WeatherDisplay:10.37,2013-02-22 13:01:00,
2013-02-22 08:10:00,27.8,20.9,30.31,North,353,1.0,7.0,75,0.00,CLR,SCT,0.00,0.0,WeatherDisplay:10.37,2013-02-22 13:10:00,
2013-02-22 08:15:00,28.4,21.2,30.31,North,349,2.0,7.0,74,0.00,CLR,SCT,0.00,0.0,WeatherDisplay:10.37,2013-02-22 13:15:00,
2013-02-22 08:25:00,29.7,21.8,30.30,NNW,345,5.0,8.0,72,0.00,CLR,SCT,0.00,0.0,WeatherDisplay:10.37,2013-02-22 13:25:00,
2013-02-22 08:30:00,31.0,22.4,30.30,North,351,2.0,8.0,70,0.00,CLR,SCT,0.00,0.0,WeatherDisplay:10.37,2013-02-22 13:30:00,
2013-02-22 08:40:00,33.8,22.9,30.30,NNW,345,3.0,8.0,64,0.00,CLR,SCT,0.00,0.0,WeatherDisplay:10.37,2013-02-22 13:40:00,
2013-02-22 08:45:00,33.4,21.8,30.30,NNW,336,2.0,8.0,62,0.00,CLR,SCT,0.00,0.0,WeatherDisplay:10.37,2013-02-22 13:45:00,
2013-02-22 08:55:00,34.8,22.7,30.30,North,349,1.0,6.0,61,0.00,CLR,SCT,0.00,0.0,WeatherDisplay:10.37,2013-02-22 13:55:00,
2013-02-22 09:01:00,36.8,23.8,30.29,North,355,2.0,6.0,59,0.00,CLR,SCT,0.00,0.0,WeatherDisplay:10.37,2013-02-22 14:01:00,
2013-02-22 09:10:00,37.3,22.6,30.30,NNE,30,3.0,8.0,55,0.00,CLR,SCT,0.00,0.0,WeatherDisplay:10.37,2013-02-22 14:10:00,
2013-02-22 09:15:00,38.6,23.8,30.30,North,6,1.0,8.0,55,0.00,CLR,SCT,0.00,0.0,WeatherDisplay:10.37,2013-02-22 14:15:00,
2013-02-22 09:25:00,39.9,22.3,30.30,NE,55,3.0,8.0,49,0.00,CLR,SCT,0.00,0.0,WeatherDisplay:10.37,2013-02-22 14:25:00,
2013-02-22 09:30:00,39.9,21.8,30.30,NNE,30,3.0,10.0,48,0.00,CLR,SCT,0.00,0.0,WeatherDisplay:10.37,2013-02-22 14:30:00,
2013-02-22 09:40:00,39.4,21.8,30.30,North,9,2.0,8.0,49,0.00,CLR,SCT,0.00,0.0,WeatherDisplay:10.37,2013-02-22 14:40:00,
2013-02-22 09:45:00,39.7,21.6,30.30,NNW,345,2.0,8.0,48,0.00,CLR,SCT,0.00,0.0,WeatherDisplay:10.37,2013-02-22 14:45:00,
2013-02-22 09:55:00,39.1,20.1,30.30,NE,37,2.0,8.0,46,0.00,CLR,SCT,0.00,0.0,WeatherDisplay:10.37,2013-02-22 14:55:00,
2013-02-22 10:01:00,39.7,21.6,30.30,NE,50,3.0,11.0,48,0.00,CLR,SCT,0.00,0.0,WeatherDisplay:10.37,2013-02-22 15:01:00,
2013-02-22 10:10:00,40.6,21.4,30.30,NE,54,2.0,9.0,46,0.00,CLR,SCT,0.00,0.0,WeatherDisplay:10.37,2013-02-22 15:10:00,
2013-02-22 10:15:00,41.1,20.8,30.30,NE,39,3.0,10.0,44,0.00,CLR,SCT,0.00,0.0,WeatherDisplay:10.37,2013-02-22 15:15:00,
2013-02-22 10:25:00,41.1,20.3,30.30,ENE,60,5.0,8.0,43,0.00,CLR,SCT,0.00,0.0,WeatherDisplay:10.37,2013-02-22 15:25:00,
2013-02-22 10:30:00,40.2,19.5,30.30,East,87,2.0,8.0,43,0.00,CLR,SCT,0.00,0.0,WeatherDisplay:10.37,2013-02-22 15:30:00,
2013-02-22 10:40:00,42.4,23.1,30.29,ENE,76,2.0,6.0,46,0.00,CLR,SCT,0.00,0.0,WeatherDisplay:10.37,2013-02-22 15:40:00,
2013-02-22 10:45:00,42.8,20.7,30.29,East,81,2.0,6.0,41,0.00,CLR,SCT,0.00,0.0,WeatherDisplay:10.37,2013-02-22 15:45:00,
2013-02-22 10:55:00,42.0,19.4,30.29,East,87,2.0,6.0,40,0.00,CLR,SCT,0.00,0.0,WeatherDisplay:10.37,2013-02-22 15:55:00,
2013-02-22 11:01:00,41.2,19.8,30.28,East,85,2.0,5.0,42,0.00,CLR,SCT,0.00,0.0,WeatherDisplay:10.37,2013-02-22 16:01:00,
2013-02-22 11:10:00,41.9,21.0,30.28,ENE,66,1.0,6.0,43,0.00,CLR,SCT,0.00,0.0,WeatherDisplay:10.37,2013-02-22 16:10:00,
2013-02-22 11:15:00,44.5,21.6,30.28,NE,38,2.0,7.0,40,0.00,CLR,SCT,0.00,0.0,WeatherDisplay:10.37,2013-02-22 16:15:00,
2013-02-22 11:25:00,44.0,19.4,30.27,ENE,68,3.0,8.0,37,0.00,CLR,SCT,0.00,0.0,WeatherDisplay:10.37,2013-02-22 16:25:00,
2013-02-22 11:30:00,43.0,19.7,30.27,East,97,1.0,8.0,39,0.00,CLR,SCT,0.00,0.0,WeatherDisplay:10.37,2013-02-22 16:30:00,
2013-02-22 11:40:00,43.2,19.9,30.27,ENE,77,2.0,8.0,39,0.00,CLR,SCT,0.00,0.0,WeatherDisplay:10.37,2013-02-22 16:40:00,
2013-02-22 11:45:00,43.6,20.8,30.27,NE,55,2.0,6.0,40,0.00,CLR,SCT,0.00,0.0,WeatherDisplay:10.37,2013-02-22 16:45:00,
2013-02-22 11:55:00,43.7,19.1,30.27,ENE,59,1.0,8.0,37,0.00,CLR,SCT,0.00,0.0,WeatherDisplay:10.37,2013-02-22 16:55:00,
2013-02-22 12:01:00,44.6,19.2,30.27,East,88,2.0,7.0,36,0.00,CLR,SCT,0.00,0.0,WeatherDisplay:10.37,2013-02-22 17:01:00,
2013-02-22 12:10:00,43.3,19.4,30.26,East,85,2.0,6.0,38,0.00,SCT,SCT,0.00,0.0,WeatherDisplay:10.37,2013-02-22 17:10:00,
2013-02-22 12:15:00,43.0,19.7,30.27,ENE,69,2.0,6.0,39,0.00,SCT,SCT,0.00,0.0,WeatherDisplay:10.37,2013-02-22 17:15:00,
2013-02-22 12:25:00,41.9,18.7,30.27,NE,51,1.0,4.0,39,0.00,SCT,SCT,0.00,0.0,WeatherDisplay:10.37,2013-02-22 17:25:00,
2013-02-22 12:30:00,42.8,20.1,30.26,ENE,65,2.0,6.0,40,0.00,SCT,SCT,0.00,0.0,WeatherDisplay:10.37,2013-02-22 17:30:00,
2013-02-22 12:40:00,43.3,18.8,30.26,ENE,63,1.0,5.0,37,0.00,SCT,SCT,0.00,0.0,WeatherDisplay:10.37,2013-02-22 17:40:00,
2013-02-22 12:45:00,42.7,18.2,30.26,East,80,2.0,6.0,37,0.00,SCT,SCT,0.00,0.0,WeatherDisplay:10.37,2013-02-22 17:45:00,
2013-02-22 12:55:00,42.4,19.2,30.26,SE,146,1.0,4.0,39,0.00,SCT,SCT,0.00,0.0,WeatherDisplay:10.37,2013-02-22 17:55:00,
2013-02-22 13:01:00,42.3,19.1,30.26,ESE,110,1.0,4.0,39,0.00,SCT,SCT,0.00,0.0,WeatherDisplay:10.37,2013-02-22 18:01:00,
2013-02-22 13:10:00,41.9,18.1,30.26,SSE,147,1.0,6.0,38,0.00,SCT,SCT,0.00,0.0,WeatherDisplay:10.37,2013-02-22 18:10:00,
2013-02-22 13:15:00,42.1,19.5,30.26,East,94,1.0,3.0,40,0.00,SCT,SCT,0.00,0.0,WeatherDisplay:10.37,2013-02-22 18:15:00,
2013-02-22 13:25:00,45.8,19.6,30.26,NE,53,2.0,6.0,35,0.00,CLR,SCT,0.00,0.0,WeatherDisplay:10.37,2013-02-22 18:25:00,
2013-02-22 13:30:00,44.4,19.7,30.26,ENE,76,0.0,5.0,37,0.00,CLR,SCT,0.00,0.0,WeatherDisplay:10.37,2013-02-22 18:30:00,
2013-02-22 13:40:00,43.1,17.9,30.26,SSE,153,3.0,5.0,36,0.00,CLR,SCT,0.00,0.0,WeatherDisplay:10.37,2013-02-22 18:40:00,
2013-02-22 13:45:00,42.2,17.7,30.26,South,176,1.0,5.0,37,0.00,CLR,SCT,0.00,0.0,WeatherDisplay:10.37,2013-02-22 18:45:00,
2013-02-22 13:55:00,41.5,17.7,30.25,East,99,2.0,5.0,38,0.00,CLR,SCT,0.00,0.0,WeatherDisplay:10.37,2013-02-22 18:55:00,
2013-02-22 14:01:00,41.2,18.7,30.25,East,95,0.0,5.0,40,0.00,CLR,SCT,0.00,0.0,WeatherDisplay:10.37,2013-02-22 19:01:00,
2013-02-22 14:10:00,41.1,18.5,30.25,East,90,1.0,4.0,40,0.00,CLR,SCT,0.00,0.0,WeatherDisplay:10.37,2013-02-22 19:10:00,
2013-02-22 14:15:00,41.0,17.9,30.25,SE,129,1.0,6.0,39,0.00,CLR,SCT,0.00,0.0,WeatherDisplay:10.37,2013-02-22 19:15:00,
2013-02-22 14:25:00,41.5,17.8,30.25,SSW,212,1.0,5.0,38,0.00,CLR,SCT,0.00,0.0,WeatherDisplay:10.37,2013-02-22 19:25:00,
2013-02-22 14:30:00,41.7,19.1,30.25,SW,225,0.0,3.0,40,0.00,CLR,SCT,0.00,0.0,WeatherDisplay:10.37,2013-02-22 19:30:00,
2013-02-22 14:40:00,41.4,18.2,30.25,ESE,102,1.0,4.0,39,0.00,CLR,SCT,0.00,0.0,WeatherDisplay:10.37,2013-02-22 19:40:00,
2013-02-22 14:45:00,41.4,18.8,30.25,NE,54,0.0,5.0,40,0.00,CLR,SCT,0.00,0.0,WeatherDisplay:10.37,2013-02-22 19:45:00,
2013-02-22 14:55:00,42.1,20.0,30.25,WNW,292,1.0,2.0,41,0.00,CLR,SCT,0.00,0.0,WeatherDisplay:10.37,2013-02-22 19:55:00,
2013-02-22 15:01:00,41.6,18.5,30.25,SE,137,1.0,6.0,39,0.00,CLR,SCT,0.00,0.0,WeatherDisplay:10.37,2013-02-22 20:01:00,
2013-02-22 15:10:00,41.0,18.5,30.25,East,96,2.0,4.0,40,0.00,CLR,SCT,0.00,0.0,WeatherDisplay:10.37,2013-02-22 20:10:00,
2013-02-22 15:20:00,40.8,18.3,30.25,SE,128,1.0,5.0,40,0.00,CLR,SCT,0.00,0.0,WeatherDisplay:10.37,2013-02-22 20:20:00,
2013-02-22 15:25:00,40.6,18.7,30.25,SE,126,2.0,7.0,41,0.00,CLR,SCT,0.00,0.0,WeatherDisplay:10.37,2013-02-22 20:25:00,
2013-02-22 15:30:00,40.4,18.5,30.26,SSE,165,2.0,6.0,41,0.00,CLR,SCT,0.00,0.0,WeatherDisplay:10.37,2013-02-22 20:30:00,
2013-02-22 15:40:00,39.7,18.5,30.26,ESE,109,0.0,4.0,42,0.00,CLR,SCT,0.00,0.0,WeatherDisplay:10.37,2013-02-22 20:40:00,
2013-02-22 15:45:00,39.9,18.7,30.26,SE,127,0.0,2.0,42,0.00,CLR,SCT,0.00,0.0,WeatherDisplay:10.37,2013-02-22 20:45:00,
2013-02-22 15:55:00,40.0,18.7,30.26,ENE,70,0.0,2.0,42,0.00,CLR,SCT,0.00,0.0,WeatherDisplay:10.37,2013-02-22 20:55:00,
2013-02-22 16:01:00,40.1,18.8,30.25,East,88,1.0,2.0,42,0.00,CLR,SCT,0.00,0.0,WeatherDisplay:10.37,2013-02-22 21:01:00,
2013-02-22 16:10:00,39.7,18.5,30.24,ESE,119,0.0,4.0,42,0.00,CLR,SCT,0.00,0.0,WeatherDisplay:10.37,2013-02-22 21:10:00,
2013-02-22 16:15:00,39.5,18.8,30.24,ESE,103,2.0,6.0,43,0.00,CLR,SCT,0.00,0.0,WeatherDisplay:10.37,2013-02-22 21:15:00,
2013-02-22 16:25:00,39.4,18.2,30.23,SE,130,0.0,3.0,42,0.00,CLR,SCT,0.00,0.0,WeatherDisplay:10.37,2013-02-22 21:25:00,
2013-02-22 16:30:00,39.4,18.2,30.24,SE,135,1.0,2.0,42,0.00,CLR,SCT,0.00,0.0,WeatherDisplay:10.37,2013-02-22 21:30:00,
2013-02-22 16:40:00,39.0,17.8,30.23,SE,136,1.0,2.0,42,0.00,CLR,SCT,0.00,0.0,WeatherDisplay:10.37,2013-02-22 21:40:00,
2013-02-22 16:45:00,38.7,18.1,30.23,ESE,117,0.0,2.0,43,0.00,CLR,SCT,0.00,0.0,WeatherDisplay:10.37,2013-02-22 21:45:00,
2013-02-22 16:55:00,38.3,18.3,30.23,SSE,154,0.0,4.0,44,0.00,CLR,SCT,0.00,0.0,WeatherDisplay:10.37,2013-02-22 21:55:00,
2013-02-22 17:01:00,38.1,18.6,30.23,SSE,153,0.0,2.0,45,0.00,CLR,SCT,0.00,0.0,WeatherDisplay:10.37,2013-02-22 22:01:00,
2013-02-22 17:10:00,37.4,19.5,30.23,SSW,197,1.0,2.0,48,0.00,CLR,SCT,0.00,0.0,WeatherDisplay:10.37,2013-02-22 22:10:00,
2013-02-22 17:15:00,37.0,20.5,30.23,SW,225,1.0,2.0,51,0.00,CLR,SCT,0.00,0.0,WeatherDisplay:10.37,2013-02-22 22:15:00,
2013-02-22 17:25:00,35.9,20.4,30.24,SW,225,1.0,2.0,53,0.00,CLR,SCT,0.00,0.0,WeatherDisplay:10.37,2013-02-22 22:25:00,
2013-02-22 17:30:00,35.5,19.6,30.24,SW,230,0.0,2.0,52,0.00,CLR,SCT,0.00,0.0,WeatherDisplay:10.37,2013-02-22 22:30:00,
2013-02-22 17:40:00,35.1,20.1,30.24,WSW,252,1.0,2.0,54,0.00,CLR,SCT,0.00,0.0,WeatherDisplay:10.37,2013-02-22 22:40:00,
2013-02-22 17:45:00,35.2,20.2,30.24,South,180,1.0,2.0,54,0.00,CLR,SCT,0.00,0.0,WeatherDisplay:10.37,2013-02-22 22:45:00,
2013-02-22 17:55:00,35.8,20.3,30.24,SSE,151,1.0,4.0,53,0.00,CLR,SCT,0.00,0.0,WeatherDisplay:10.37,2013-02-22 22:55:00,
2013-02-22 18:01:00,35.8,20.3,30.25,SSE,164,2.0,5.0,53,0.00,CLR,SCT,0.00,0.0,WeatherDisplay:10.37,2013-02-22 23:01:00,
2013-02-22 18:10:00,35.6,20.6,30.25,SSE,166,1.0,3.0,54,0.00,CLR,SCT,0.00,0.0,WeatherDisplay:10.37,2013-02-22 23:10:00,
2013-02-22 18:15:00,35.4,20.4,30.25,SSE,168,1.0,2.0,54,0.00,CLR,SCT,0.00,0.0,WeatherDisplay:10.37,2013-02-22 23:15:00,
2013-02-22 18:25:00,35.2,20.2,30.26,South,178,1.0,3.0,54,0.00,CLR,SCT,0.00,0.0,WeatherDisplay:10.37,2013-02-22 23:25:00,
2013-02-22 18:30:00,35.2,20.6,30.25,SSE,155,1.0,3.0,55,0.00,CLR,SCT,0.00,0.0,WeatherDisplay:10.37,2013-02-22 23:30:00,
2013-02-22 18:40:00,34.9,20.8,30.25,SSE,167,1.0,4.0,56,0.00,CLR,SCT,0.00,0.0,WeatherDisplay:10.37,2013-02-22 23:40:00,
2013-02-22 18:45:00,34.7,20.6,30.25,South,171,1.0,4.0,56,0.00,CLR,SCT,0.00,0.0,WeatherDisplay:10.37,2013-02-22 23:45:00,
2013-02-22 18:55:00,34.5,21.7,30.26,SSW,206,1.0,3.0,59,0.00,CLR,SCT,0.00,0.0,WeatherDisplay:10.37,2013-02-22 23:55:00,
2013-02-22 19:01:00,34.5,21.7,30.26,SSW,192,0.0,3.0,59,0.00,CLR,SCT,0.00,0.0,WeatherDisplay:10.37,2013-02-23 00:01:00,
2013-02-22 19:10:00,34.3,22.3,30.25,SSE,150,1.0,3.0,61,0.00,CLR,SCT,0.00,0.0,WeatherDisplay:10.37,2013-02-23 00:10:00,
2013-02-22 19:15:00,34.3,22.3,30.26,South,169,1.0,2.0,61,0.00,CLR,SCT,0.00,0.0,WeatherDisplay:10.37,2013-02-23 00:15:00,
2013-02-22 19:25:00,34.0,22.3,30.26,SSE,166,1.0,3.0,62,0.00,CLR,SCT,0.00,0.0,WeatherDisplay:10.37,2013-02-23 00:25:00,
2013-02-22 19:30:00,34.0,22.7,30.26,SSE,159,0.0,2.0,63,0.00,CLR,SCT,0.00,0.0,WeatherDisplay:10.37,2013-02-23 00:30:00,
2013-02-22 19:40:00,33.8,22.9,30.25,SE,130,1.0,3.0,64,0.00,CLR,SCT,0.00,0.0,WeatherDisplay:10.37,2013-02-23 00:40:00,
2013-02-22 19:45:00,33.6,22.7,30.25,SSW,197,0.0,3.0,64,0.00,CLR,SCT,0.00,0.0,WeatherDisplay:10.37,2013-02-23 00:45:00,
2013-02-22 19:55:00,33.6,23.1,30.26,SE,138,1.0,2.0,65,0.00,CLR,SCT,0.00,0.0,WeatherDisplay:10.37,2013-02-23 00:55:00,
2013-02-22 20:01:00,33.6,23.1,30.26,SSW,203,0.0,3.0,65,0.00,CLR,SCT,0.00,0.0,WeatherDisplay:10.37,2013-02-23 01:01:00,
2013-02-22 20:10:00,33.3,23.1,30.26,South,187,0.0,2.0,66,0.00,CLR,SCT,0.00,0.0,WeatherDisplay:10.37,2013-02-23 01:10:00,
2013-02-22 20:15:00,33.3,23.5,30.26,SE,145,0.0,2.0,67,0.00,CLR,SCT,0.00,0.0,WeatherDisplay:10.37,2013-02-23 01:15:00,
2013-02-22 20:25:00,32.9,23.5,30.26,SSW,202,0.0,0.0,68,0.00,CLR,SCT,0.00,0.0,WeatherDisplay:10.37,2013-02-23 01:25:00,
2013-02-22 20:30:00,32.7,23.3,30.26,SSW,202,0.0,0.0,68,0.00,CLR,SCT,0.00,0.0,WeatherDisplay:10.37,2013-02-23 01:30:00,
2013-02-22 20:40:00,32.7,23.3,30.26,South,180,0.0,1.0,68,0.00,CLR,SCT,0.00,0.0,WeatherDisplay:10.37,2013-02-23 01:40:00,
2013-02-22 20:45:00,32.7,23.7,30.26,SE,130,1.0,2.0,69,0.00,CLR,SCT,0.00,0.0,WeatherDisplay:10.37,2013-02-23 01:45:00,
2013-02-22 20:55:00,32.7,23.7,30.26,South,182,0.0,2.0,69,0.00,CLR,SCT,0.00,0.0,WeatherDisplay:10.37,2013-02-23 01:55:00,
2013-02-22 21:01:00,32.7,23.3,30.26,South,180,0.0,1.0,68,0.00,CLR,SCT,0.00,0.0,WeatherDisplay:10.37,2013-02-23 02:01:00,
2013-02-22 21:10:00,32.4,23.3,30.26,South,180,0.0,1.0,69,0.00,CLR,SCT,0.00,0.0,WeatherDisplay:10.37,2013-02-23 02:10:00,
2013-02-22 21:15:00,32.2,23.1,30.25,South,180,0.0,1.0,69,0.00,CLR,SCT,0.00,0.0,WeatherDisplay:10.37,2013-02-23 02:15:00,
2013-02-22 21:25:00,32.0,24.0,30.26,SSW,198,1.0,2.0,72,0.00,CLR,SCT,0.00,0.0,WeatherDisplay:10.37,2013-02-23 02:25:00,
2013-02-22 21:30:00,32.0,24.3,30.26,WSW,252,0.0,2.0,73,0.00,CLR,SCT,0.00,0.0,WeatherDisplay:10.37,2013-02-23 02:30:00,
2013-02-22 21:40:00,31.8,23.8,30.26,West,270,0.0,2.0,72,0.00,CLR,SCT,0.00,0.0,WeatherDisplay:10.37,2013-02-23 02:40:00,
2013-02-22 21:45:00,31.8,24.1,30.26,West,270,0.0,2.0,73,0.00,CLR,SCT,0.00,0.0,WeatherDisplay:10.37,2013-02-23 02:45:00,
2013-02-22 21:55:00,31.8,24.1,30.26,West,270,0.0,2.0,73,0.00,CLR,SCT,0.00,0.0,WeatherDisplay:10.37,2013-02-23 02:55:00,
2013-02-22 22:01:00,31.8,24.5,30.26,West,270,0.0,2.0,74,0.00,CLR,SCT,0.00,0.0,WeatherDisplay:10.37,2013-02-23 03:01:00,
2013-02-22 22:10:00,31.8,24.5,30.26,West,270,0.0,0.0,74,0.00,CLR,SCT,0.00,0.0,WeatherDisplay:10.37,2013-02-23 03:10:00,
2013-02-22 22:15:00,31.8,24.5,30.26,West,270,0.0,0.0,74,0.00,CLR,SCT,0.00,0.0,WeatherDisplay:10.37,2013-02-23 03:15:00,
2013-02-22 22:25:00,31.6,24.3,30.26,West,270,0.0,0.0,74,0.00,CLR,SCT,0.00,0.0,WeatherDisplay:10.37,2013-02-23 03:25:00,
2013-02-22 22:30:00,31.6,24.3,30.26,West,270,0.0,1.0,74,0.00,CLR,SCT,0.00,0.0,WeatherDisplay:10.37,2013-02-23 03:30:00,
2013-02-22 22:40:00,31.6,24.3,30.26,West,270,0.0,1.0,74,0.00,CLR,SCT,0.00,0.0,WeatherDisplay:10.37,2013-02-23 03:40:00,
2013-02-22 22:45:00,31.5,24.4,30.26,West,270,0.0,1.0,75,0.00,CLR,SCT,0.00,0.0,WeatherDisplay:10.37,2013-02-23 03:45:00,
2013-02-22 22:55:00,31.3,24.3,30.26,West,270,0.0,0.0,75,0.00,CLR,SCT,0.00,0.0,WeatherDisplay:10.37,2013-02-23 03:55:00,
2013-02-22 23:01:00,31.1,24.1,30.26,West,270,0.0,0.0,75,0.00,CLR,SCT,0.00,0.0,WeatherDisplay:10.37,2013-02-23 04:01:00,
2013-02-22 23:10:00,30.9,23.9,30.25,West,270,0.0,0.0,75,0.00,SCT,SCT,0.00,0.0,WeatherDisplay:10.37,2013-02-23 04:10:00,
2013-02-22 23:15:00,30.9,23.9,30.25,West,270,0.0,0.0,75,0.00,SCT,SCT,0.00,0.0,WeatherDisplay:10.37,2013-02-23 04:15:00,
2013-02-22 23:25:00,30.9,24.2,30.25,West,270,0.0,0.0,76,0.00,SCT,SCT,0.00,0.0,WeatherDisplay:10.37,2013-02-23 04:25:00,
2013-02-22 23:30:00,30.9,24.6,30.25,West,270,0.0,0.0,77,0.00,SCT,SCT,0.00,0.0,WeatherDisplay:10.37,2013-02-23 04:30:00,
2013-02-22 23:40:00,30.9,24.6,30.25,West,270,0.0,0.0,77,0.00,SCT,SCT,0.00,0.0,WeatherDisplay:10.37,2013-02-23 04:40:00,
2013-02-22 23:45:00,30.9,24.9,30.25,West,270,0.0,0.0,78,0.00,SCT,SCT,0.00,0.0,WeatherDisplay:10.37,2013-02-23 04:45:00,
2013-02-22 23:55:00,30.7,24.7,30.25,West,270,0.0,0.0,78,0.00,SCT,SCT,0.00,0.0,WeatherDisplay:10.37,2013-02-23 04:55:00,